CheckWX is a tool to help pilots better visualize weather data.  It is not intended as a substitute for an official pre-flight weather briefing.

00:49:13 UTC

KIAD METAR
Washington Dulles International Airport
Washington, Virginia, USA
Current

57 mins ago

KIAD 192352Z 30011G22KT 10SM BKN065 M01/M09 A3009 RMK AO2 PK WND 32026/2319 SLP192 T10061094 10044 21006 51028
Observed
Jan-19 @ 23:52 UTC
Wind
  • 300° at 11 KTS
  • Gusting to 22 KTS
Visibility
10 SM
Flight Rules
VFR
Cloud Levels
  • Broken at 6,500' AGL
Temperature
-1°C / 30°F
Dewpoint
-9°C / 16°F
Humidity
55%
Altimeter
30.09" Hg
Pressure
1018.92 hPa
Previous

2 hours ago

KIAD 192252Z 31016G24KT 10SM BKN065 00/M09 A3006 RMK AO2 SLP181 T00001094
Observed
Jan-19 @ 22:52 UTC
Wind
  • 310° at 16 KTS
  • Gusting to 24 KTS
Visibility
10 SM
Flight Rules
VFR
Cloud Levels
  • Broken at 6,500' AGL
Temperature
C / 32°F
Dewpoint
-9°C / 16°F
Humidity
51%
Altimeter
30.06" Hg
Pressure
1017.92 hPa
Previous

3 hours ago

KIAD 192152Z 30013G21KT 10SM BKN060 01/M08 A3004 RMK AO2 PK WND 30026/2115 SLP175 T00061078
Observed
Jan-19 @ 21:52 UTC
Wind
  • 300° at 13 KTS
  • Gusting to 21 KTS
Visibility
10 SM
Flight Rules
VFR
Cloud Levels
  • Broken at 6,000' AGL
Temperature
C / 34°F
Dewpoint
-8°C / 18°F
Humidity
51%
Altimeter
30.04" Hg
Pressure
1017.32 hPa